createdAt,value
2017-04-04T00:00:35.225Z,1027.33
2017-04-04T00:01:56.824Z,1027.33
2017-04-04T00:03:19.041Z,1027.34
2017-04-04T00:04:41.205Z,1027.32
2017-04-04T00:06:02.706Z,1027.25
2017-04-04T00:07:24.831Z,1027.29
2017-04-04T00:08:46.636Z,1027.3
2017-04-04T00:10:08.461Z,1027.28
2017-04-04T00:11:29.946Z,1027.27
2017-04-04T00:12:51.765Z,1027.26
2017-04-04T00:14:14.196Z,1027.23
2017-04-04T00:15:35.699Z,1027.24
2017-04-04T00:16:57.647Z,1027.27
2017-04-04T00:18:19.141Z,1027.25
2017-04-04T00:19:40.616Z,1027.26
2017-04-04T00:21:02.482Z,1027.26
2017-04-04T00:22:24.930Z,1027.25
2017-04-04T00:23:47.387Z,1027.26
2017-04-04T00:25:09.547Z,1027.27
2017-04-04T00:26:31.174Z,1027.28
2017-04-04T00:27:52.968Z,1027.26
2017-04-04T00:29:15.138Z,1027.29
2017-04-04T00:30:37.260Z,1027.27
2017-04-04T00:31:58.754Z,1027.21
2017-04-04T00:33:20.567Z,1027.27
2017-04-04T00:34:42.840Z,1027.22
2017-04-04T00:36:04.719Z,1027.24
2017-04-04T00:37:26.265Z,1027.23
2017-04-04T00:38:48.162Z,1027.24
2017-04-04T00:40:10.594Z,1027.25
2017-04-04T00:41:32.796Z,1027.26
2017-04-04T00:42:54.616Z,1027.26
2017-04-04T00:44:16.769Z,1027.27
2017-04-04T00:45:38.579Z,1027.26
2017-04-04T00:47:01.374Z,1027.26
2017-04-04T00:48:23.826Z,1027.27
2017-04-04T00:49:45.108Z,1027.23
2017-04-04T00:51:06.918Z,1027.24
2017-04-04T00:52:29.094Z,1027.24
2017-04-04T00:53:50.909Z,1027.24
2017-04-04T00:55:12.705Z,1027.24
2017-04-04T00:56:34.617Z,1027.21
2017-04-04T00:57:56.877Z,1027.21
2017-04-04T00:59:19.000Z,1027.23
2017-04-04T01:00:41.295Z,1027.2
2017-04-04T01:02:03.110Z,1027.21
2017-04-04T01:03:25.586Z,1027.19
2017-04-04T01:04:47.718Z,1027.16
2017-04-04T01:06:09.218Z,1027.15
2017-04-04T01:07:31.052Z,1027.18
2017-04-04T01:08:52.895Z,1027.22
2017-04-04T01:10:15.157Z,1027.18
2017-04-04T01:11:37.302Z,1027.21
2017-04-04T01:12:59.261Z,1027.21
2017-04-04T01:14:21.728Z,1027.21
2017-04-04T01:15:43.215Z,1027.18
2017-04-04T01:17:05.018Z,1027.19
2017-04-04T01:18:27.206Z,1027.21
2017-04-04T01:19:49.790Z,1027.2
2017-04-04T01:21:11.813Z,1027.23
2017-04-04T01:22:33.637Z,1027.21
2017-04-04T01:23:55.469Z,1027.23
2017-04-04T01:25:17.638Z,1027.26
2017-04-04T01:26:40.072Z,1027.22
2017-04-04T01:28:01.897Z,1027.23
2017-04-04T01:29:23.418Z,1027.23
2017-04-04T01:30:46.204Z,1027.24
2017-04-04T01:32:08.693Z,1027.22
2017-04-04T01:33:30.857Z,1027.25
2017-04-04T01:34:53.002Z,1027.23
2017-04-04T01:36:15.496Z,1027.23
2017-04-04T01:37:37.114Z,1027.23
2017-04-04T01:38:59.044Z,1027.23
2017-04-04T01:40:20.946Z,1027.26
2017-04-04T01:41:43.096Z,1027.18
2017-04-04T01:43:05.234Z,1027.15
2017-04-04T01:44:27.366Z,1027.17
2017-04-04T01:45:49.833Z,1027.19
2017-04-04T01:47:12.581Z,1027.14
2017-04-04T01:48:35.032Z,1027.12
2017-04-04T01:49:56.955Z,1027.19
2017-04-04T01:51:18.787Z,1027.19
2017-04-04T01:52:40.592Z,1027.18
2017-04-04T01:54:03.045Z,1027.13
2017-04-04T01:55:24.966Z,1027.14
2017-04-04T01:56:47.096Z,1027.1
2017-04-04T01:58:09.879Z,1027.11
2017-04-04T01:59:31.378Z,1027.11
2017-04-04T02:00:53.816Z,1027.12
2017-04-04T02:02:15.657Z,1027.09
2017-04-04T02:03:37.775Z,1027.11
2017-04-04T02:04:59.911Z,1027.12
2017-04-04T02:06:22.145Z,1027.12
2017-04-04T02:07:44.040Z,1027.1
2017-04-04T02:09:06.205Z,1027.1
2017-04-04T02:10:28.201Z,1027.1
2017-04-04T02:11:50.019Z,1027.05
2017-04-04T02:13:12.160Z,1027.09
2017-04-04T02:14:34.404Z,1027.08
2017-04-04T02:15:56.571Z,1027.11
2017-04-04T02:17:18.058Z,1027.1
2017-04-04T02:18:39.547Z,1027.08
2017-04-04T02:20:01.506Z,1027.08
2017-04-04T02:21:23.612Z,1027.05
2017-04-04T02:22:45.149Z,1027.05
2017-04-04T02:24:07.398Z,1027.05
2017-04-04T02:25:29.824Z,1027.03
2017-04-04T02:26:51.359Z,1027
2017-04-04T02:28:13.159Z,1026.99
2017-04-04T02:29:34.769Z,1027.02
2017-04-04T02:30:57.056Z,1027.03
2017-04-04T02:32:19.237Z,1026.95
2017-04-04T02:33:41.702Z,1027.01
2017-04-04T02:35:03.203Z,1026.96
2017-04-04T02:36:25.324Z,1026.97
2017-04-04T02:37:47.163Z,1026.99
2017-04-04T02:39:08.658Z,1026.92
2017-04-04T02:40:30.464Z,1026.9
2017-04-04T02:41:52.345Z,1026.91
2017-04-04T02:43:14.180Z,1026.88
2017-04-04T02:44:36.045Z,1026.89
2017-04-04T02:45:58.179Z,1026.85
2017-04-04T02:48:50.496Z,1026.82
2017-04-04T02:50:12.658Z,1026.85
2017-04-04T02:51:34.836Z,1026.8
2017-04-04T02:52:56.671Z,1026.77
2017-04-04T02:54:18.847Z,1026.76
2017-04-04T02:55:41.045Z,1026.73
2017-04-04T02:57:02.917Z,1026.75
2017-04-04T02:58:25.041Z,1026.7
2017-04-04T02:59:47.596Z,1026.68
2017-04-04T03:01:09.095Z,1026.69
2017-04-04T03:02:30.614Z,1026.73
2017-04-04T03:03:52.495Z,1026.72
2017-04-04T03:05:14.659Z,1026.73
2017-04-04T03:06:36.597Z,1026.76
2017-04-04T03:07:58.410Z,1026.71
2017-04-04T03:09:19.900Z,1026.77
2017-04-04T03:10:42.326Z,1026.77
2017-04-04T03:12:04.435Z,1026.77
2017-04-04T03:13:26.272Z,1026.76
2017-04-04T03:14:48.084Z,1026.74
2017-04-04T03:16:10.205Z,1026.77
2017-04-04T03:17:32.036Z,1026.74
2017-04-04T03:18:54.158Z,1026.71
2017-04-04T03:20:15.566Z,1026.67
2017-04-04T03:21:37.866Z,1026.66
2017-04-04T03:22:59.680Z,1026.68
2017-04-04T03:24:21.156Z,1026.68
2017-04-04T03:25:43.079Z,1026.68
2017-04-04T03:27:04.874Z,1026.66
2017-04-04T03:28:27.335Z,1026.61
2017-04-04T03:29:48.876Z,1026.63
2017-04-04T03:31:11.117Z,1026.65
2017-04-04T03:32:33.296Z,1026.66
2017-04-04T03:33:54.793Z,1026.64
2017-04-04T03:35:16.268Z,1026.62
2017-04-04T03:36:38.082Z,1026.64
2017-04-04T03:38:00.180Z,1026.65
2017-04-04T03:39:21.690Z,1026.63
2017-04-04T03:40:43.257Z,1026.62
2017-04-04T03:42:05.117Z,1026.63
2017-04-04T03:43:27.564Z,1026.62
2017-04-04T03:44:49.434Z,1026.62
2017-04-04T03:46:11.883Z,1026.6
2017-04-04T03:47:33.691Z,1026.59
2017-04-04T03:48:54.867Z,1026.61
2017-04-04T03:50:16.786Z,1026.64
2017-04-04T03:51:38.875Z,1026.62
2017-04-04T03:53:00.696Z,1026.62
2017-04-04T03:54:22.812Z,1026.58
2017-04-04T03:55:45.277Z,1026.59
2017-04-04T03:57:07.234Z,1026.56
2017-04-04T03:58:28.847Z,1026.55
2017-04-04T03:59:52.288Z,1026.56
2017-04-04T04:01:14.098Z,1026.53
2017-04-04T04:02:36.226Z,1026.54
2017-04-04T04:03:58.075Z,1026.55
2017-04-04T04:05:19.976Z,1026.52
2017-04-04T04:06:42.131Z,1026.56
2017-04-04T04:08:03.633Z,1026.53
2017-04-04T04:09:25.454Z,1026.52
2017-04-04T04:10:47.885Z,1026.49
2017-04-04T04:12:10.337Z,1026.52
2017-04-04T04:13:32.494Z,1026.49
2017-04-04T04:14:54.317Z,1026.5
2017-04-04T04:16:16.844Z,1026.5
2017-04-04T04:17:38.656Z,1026.51
2017-04-04T04:19:00.768Z,1026.49
2017-04-04T04:20:22.863Z,1026.48
2017-04-04T04:21:44.348Z,1026.5
2017-04-04T04:23:06.488Z,1026.45
2017-04-04T04:24:28.715Z,1026.5
2017-04-04T04:25:50.871Z,1026.52
2017-04-04T04:27:12.822Z,1026.51
2017-04-04T04:28:34.325Z,1026.54
2017-04-04T04:29:55.814Z,1026.53
2017-04-04T04:31:17.307Z,1026.55
2017-04-04T04:32:39.493Z,1026.5
2017-04-04T04:34:01.649Z,1026.54
2017-04-04T04:35:23.806Z,1026.47
2017-04-04T04:36:46.233Z,1026.43
2017-04-04T04:38:08.995Z,1026.47
2017-04-04T04:39:31.317Z,1026.44
2017-04-04T04:40:53.591Z,1026.48
2017-04-04T04:42:14.804Z,1026.48
2017-04-04T04:43:36.984Z,1026.48
2017-04-04T04:44:59.098Z,1026.5
2017-04-04T04:46:21.625Z,1026.5
2017-04-04T04:47:43.771Z,1026.46
2017-04-04T04:49:05.914Z,1026.49
2017-04-04T04:50:27.747Z,1026.48
2017-04-04T04:51:49.575Z,1026.48
2017-04-04T04:53:11.727Z,1026.48
2017-04-04T04:54:34.154Z,1026.51
2017-04-04T04:55:56.063Z,1026.46
2017-04-04T04:57:18.186Z,1026.49
2017-04-04T04:58:40.365Z,1026.49
2017-04-04T05:00:02.229Z,1026.52
2017-04-04T05:01:23.849Z,1026.49
2017-04-04T05:02:46.034Z,1026.52
2017-04-04T05:04:07.540Z,1026.5
2017-04-04T05:05:29.386Z,1026.52
2017-04-04T05:06:51.566Z,1026.51
2017-04-04T05:08:12.767Z,1026.5
2017-04-04T05:09:34.576Z,1026.52
2017-04-04T05:10:57.407Z,1026.54
2017-04-04T05:12:19.536Z,1026.55
2017-04-04T05:13:41.377Z,1026.55
2017-04-04T05:15:03.884Z,1026.56
2017-04-04T05:16:26.026Z,1026.52
2017-04-04T05:17:48.604Z,1026.52
2017-04-04T05:19:10.436Z,1026.58
2017-04-04T05:20:31.945Z,1026.53
2017-04-04T05:21:53.390Z,1026.58
2017-04-04T05:23:15.387Z,1026.56
2017-04-04T05:24:37.628Z,1026.64
2017-04-04T05:26:00.056Z,1026.66
2017-04-04T05:27:22.186Z,1026.67
2017-04-04T05:28:44.317Z,1026.71
2017-04-04T05:30:06.471Z,1026.72
2017-04-04T05:31:28.601Z,1026.7
2017-04-04T05:32:51.155Z,1026.73
2017-04-04T05:34:13.302Z,1026.72
2017-04-04T05:35:35.459Z,1026.73
2017-04-04T05:36:57.297Z,1026.73
2017-04-04T05:38:19.727Z,1026.7
2017-04-04T05:39:41.547Z,1026.72
2017-04-04T05:41:03.693Z,1026.72
2017-04-04T05:42:25.812Z,1026.72
2017-04-04T05:43:48.196Z,1026.73
2017-04-04T05:45:09.729Z,1026.73
2017-04-04T05:46:32.299Z,1026.8
2017-04-04T05:47:53.821Z,1026.79
2017-04-04T05:49:16.017Z,1026.79
2017-04-04T05:50:37.828Z,1026.8
2017-04-04T05:51:59.998Z,1026.77
2017-04-04T05:53:21.827Z,1026.86
2017-04-04T05:54:43.906Z,1026.89
2017-04-04T05:56:06.058Z,1026.88
2017-04-04T05:57:28.535Z,1026.92
2017-04-04T05:58:49.707Z,1026.9
2017-04-04T06:00:12.034Z,1026.97
2017-04-04T06:01:33.864Z,1027.03
2017-04-04T06:02:55.695Z,1027.08
2017-04-04T06:04:17.413Z,1027.04
2017-04-04T06:05:39.837Z,1027.09
2017-04-04T06:07:01.978Z,1027.12
2017-04-04T06:08:23.786Z,1027.11
2017-04-04T06:09:46.287Z,1027.13
2017-04-04T06:11:08.428Z,1027.17
2017-04-04T06:12:30.249Z,1027.2
2017-04-04T06:13:52.381Z,1027.19
2017-04-04T06:15:14.612Z,1027.21
2017-04-04T06:16:37.062Z,1027.26
2017-04-04T06:17:59.244Z,1027.31
2017-04-04T06:19:20.447Z,1027.26
2017-04-04T06:20:42.585Z,1027.3
2017-04-04T06:22:04.698Z,1027.31
2017-04-04T06:23:26.907Z,1027.31
2017-04-04T06:24:49.087Z,1027.32
2017-04-04T06:26:11.278Z,1027.38
2017-04-04T06:27:33.120Z,1027.37
2017-04-04T06:28:55.577Z,1027.37
2017-04-04T06:30:17.854Z,1027.41
2017-04-04T06:31:39.460Z,1027.42
2017-04-04T06:33:02.201Z,1027.42
2017-04-04T06:34:24.636Z,1027.43
2017-04-04T06:35:46.458Z,1027.44
2017-04-04T06:37:08.338Z,1027.49
2017-04-04T06:38:29.778Z,1027.55
2017-04-04T06:39:51.908Z,1027.56
2017-04-04T06:41:14.464Z,1027.59
2017-04-04T06:42:36.403Z,1027.62
2017-04-04T06:43:58.791Z,1027.67
2017-04-04T06:45:20.608Z,1027.68
2017-04-04T06:46:42.435Z,1027.66
2017-04-04T06:48:04.255Z,1027.68
2017-04-04T06:49:28.158Z,1027.64
2017-04-04T06:50:49.757Z,1027.61
2017-04-04T06:52:11.573Z,1027.62
2017-04-04T06:53:33.743Z,1027.59
2017-04-04T06:54:56.569Z,1027.64
2017-04-04T06:56:19.020Z,1027.65
2017-04-04T06:57:40.528Z,1027.63
2017-04-04T06:59:02.416Z,1027.67
2017-04-04T07:00:24.865Z,1027.66
2017-04-04T07:01:46.824Z,1027.68
2017-04-04T07:03:08.997Z,1027.66
2017-04-04T07:04:30.814Z,1027.62
2017-04-04T07:05:52.962Z,1027.65
2017-04-04T07:07:14.789Z,1027.67
2017-04-04T07:08:36.934Z,1027.66
2017-04-04T07:09:59.097Z,1027.68
2017-04-04T07:11:20.927Z,1027.7
2017-04-04T07:12:42.769Z,1027.72
2017-04-04T07:14:04.286Z,1027.74
2017-04-04T07:15:26.651Z,1027.71
2017-04-04T07:16:48.846Z,1027.73
2017-04-04T07:18:10.377Z,1027.72
2017-04-04T07:19:32.837Z,1027.67
2017-04-04T07:20:54.685Z,1027.68
2017-04-04T07:22:17.086Z,1027.65
2017-04-04T07:23:39.577Z,1027.66
2017-04-04T07:25:01.776Z,1027.71
2017-04-04T07:26:23.664Z,1027.7
2017-04-04T07:27:45.597Z,1027.71
2017-04-04T07:29:07.767Z,1027.69
2017-04-04T07:30:29.618Z,1027.71
2017-04-04T07:31:52.086Z,1027.69
2017-04-04T07:33:14.191Z,1027.69
2017-04-04T07:34:36.744Z,1027.74
2017-04-04T07:35:58.889Z,1027.69
2017-04-04T07:37:20.890Z,1027.68
2017-04-04T07:38:42.663Z,1027.65
2017-04-04T07:40:04.756Z,1027.68
2017-04-04T07:41:27.040Z,1027.66
2017-04-04T07:42:48.548Z,1027.71
2017-04-04T07:44:11.261Z,1027.63
2017-04-04T07:45:33.517Z,1027.62
2017-04-04T07:46:55.668Z,1027.6
2017-04-04T07:48:18.257Z,1027.55
2017-04-04T07:49:41.022Z,1027.49
2017-04-04T07:51:03.357Z,1027.53
2017-04-04T07:52:25.851Z,1027.49
2017-04-04T07:53:47.688Z,1027.5
2017-04-04T07:55:10.467Z,1027.48
2017-04-04T07:56:31.971Z,1027.46
2017-04-04T07:57:54.008Z,1027.43
2017-04-04T07:59:15.518Z,1027.4
2017-04-04T08:00:37.306Z,1027.42
2017-04-04T08:01:58.892Z,1027.42
2017-04-04T08:03:21.057Z,1027.49
2017-04-04T08:04:43.228Z,1027.43
2017-04-04T08:06:05.406Z,1027.48
2017-04-04T08:07:27.226Z,1027.5
2017-04-04T08:08:48.756Z,1027.51
2017-04-04T08:10:10.576Z,1027.48
2017-04-04T08:11:32.377Z,1027.49
2017-04-04T08:12:54.525Z,1027.46
2017-04-04T08:14:17.065Z,1027.42
2017-04-04T08:15:39.503Z,1027.51
2017-04-04T08:17:01.051Z,1027.53
2017-04-04T08:18:23.287Z,1027.49
2017-04-04T08:19:44.174Z,1027.53
2017-04-04T08:21:06.636Z,1027.52
2017-04-04T08:22:28.444Z,1027.48
2017-04-04T08:23:49.963Z,1027.5
2017-04-04T08:25:11.839Z,1027.46
2017-04-04T08:26:33.977Z,1027.5
2017-04-04T08:27:56.424Z,1027.57
2017-04-04T08:29:18.250Z,1027.6
2017-04-04T08:30:40.720Z,1027.69
2017-04-04T08:32:02.937Z,1027.7
2017-04-04T08:33:25.228Z,1027.76
2017-04-04T08:34:47.727Z,1027.74
2017-04-04T08:36:10.173Z,1027.72
2017-04-04T08:37:32.001Z,1027.73
2017-04-04T08:38:54.450Z,1027.69
2017-04-04T08:40:16.012Z,1027.66
2017-04-04T08:41:38.236Z,1027.72
2017-04-04T08:43:00.096Z,1027.7
2017-04-04T08:44:22.375Z,1027.74
2017-04-04T08:45:44.181Z,1027.75
2017-04-04T08:47:06.328Z,1027.77
2017-04-04T08:48:27.861Z,1027.81
2017-04-04T08:49:49.945Z,1027.79
2017-04-04T08:51:12.436Z,1027.81
2017-04-04T08:52:34.604Z,1027.76
2017-04-04T08:53:56.755Z,1027.79
2017-04-04T08:55:18.970Z,1027.78
2017-04-04T08:56:41.204Z,1027.76
2017-04-04T08:58:03.236Z,1027.75
2017-04-04T08:59:25.087Z,1027.77
2017-04-04T09:00:47.481Z,1027.8
2017-04-04T09:02:09.354Z,1027.86
2017-04-04T09:03:31.220Z,1027.87
2017-04-04T09:04:53.043Z,1027.9
2017-04-04T09:06:14.915Z,1027.91
2017-04-04T09:07:36.436Z,1027.9
2017-04-04T09:08:58.686Z,1027.87
2017-04-04T09:10:21.268Z,1027.84
2017-04-04T09:11:43.643Z,1027.83
2017-04-04T09:13:06.105Z,1027.84
2017-04-04T09:14:27.975Z,1027.85
2017-04-04T09:15:49.219Z,1027.8
2017-04-04T09:17:11.966Z,1027.81
2017-04-04T09:18:33.496Z,1027.85
2017-04-04T09:19:55.070Z,1027.9
2017-04-04T09:21:16.573Z,1027.9
2017-04-04T09:22:38.384Z,1027.9
2017-04-04T09:24:00.215Z,1027.87
2017-04-04T09:25:21.108Z,1027.89
2017-04-04T09:26:42.996Z,1027.87
2017-04-04T09:28:04.783Z,1027.85
2017-04-04T09:29:26.306Z,1027.81
2017-04-04T09:30:48.463Z,1027.83
2017-04-04T09:32:10.625Z,1027.81
2017-04-04T09:33:33.077Z,1027.8
2017-04-04T09:34:55.251Z,1027.82
2017-04-04T09:36:17.455Z,1027.8
2017-04-04T09:37:39.395Z,1027.81
2017-04-04T09:39:01.852Z,1027.86
2017-04-04T09:40:24.300Z,1027.82
2017-04-04T09:41:46.115Z,1027.8
2017-04-04T09:43:08.274Z,1027.71
2017-04-04T09:44:29.790Z,1027.71
2017-04-04T09:45:51.642Z,1027.69
2017-04-04T09:47:13.792Z,1027.7
2017-04-04T09:48:35.938Z,1027.68
2017-04-04T09:49:58.397Z,1027.69
2017-04-04T09:51:19.597Z,1027.68
2017-04-04T09:52:41.139Z,1027.71
2017-04-04T09:54:02.766Z,1027.72
2017-04-04T09:55:24.967Z,1027.72
2017-04-04T09:56:46.935Z,1027.73
2017-04-04T09:58:08.145Z,1027.67
2017-04-04T09:59:30.625Z,1027.66
2017-04-04T10:00:52.816Z,1027.7
2017-04-04T10:02:15.404Z,1027.71
2017-04-04T10:03:37.563Z,1027.71
2017-04-04T10:04:59.726Z,1027.71
2017-04-04T10:06:21.946Z,1027.72
2017-04-04T10:07:44.087Z,1027.71
2017-04-04T10:09:05.893Z,1027.73
2017-04-04T10:10:27.417Z,1027.7
2017-04-04T10:11:49.670Z,1027.74
2017-04-04T10:13:11.518Z,1027.71
2017-04-04T10:14:33.768Z,1027.73
2017-04-04T10:15:55.655Z,1027.7
2017-04-04T10:17:17.755Z,1027.68
2017-04-04T10:18:39.597Z,1027.68
2017-04-04T10:20:01.099Z,1027.63
2017-04-04T10:21:22.927Z,1027.65
2017-04-04T10:22:45.434Z,1027.59
2017-04-04T10:24:06.970Z,1027.52
2017-04-04T10:25:28.596Z,1027.51
2017-04-04T10:26:50.736Z,1027.53
2017-04-04T10:28:13.498Z,1027.51
2017-04-04T10:29:35.355Z,1027.54
2017-04-04T10:30:56.853Z,1027.55
2017-04-04T10:32:18.687Z,1027.52
2017-04-04T10:33:40.875Z,1027.48
2017-04-04T10:35:02.420Z,1027.51
2017-04-04T10:36:24.254Z,1027.51
2017-04-04T10:37:46.386Z,1027.57
2017-04-04T10:39:08.542Z,1027.56
2017-04-04T10:40:30.686Z,1027.54
2017-04-04T10:41:52.849Z,1027.51
2017-04-04T10:43:15.445Z,1027.48
2017-04-04T10:44:38.225Z,1027.43
2017-04-04T10:46:00.376Z,1027.45
2017-04-04T10:47:22.517Z,1027.46
2017-04-04T10:48:44.344Z,1027.45
2017-04-04T10:50:06.785Z,1027.49
2017-04-04T10:51:29.005Z,1027.43
2017-04-04T10:52:51.233Z,1027.44
2017-04-04T10:54:13.384Z,1027.43
2017-04-04T10:55:35.525Z,1027.41
2017-04-04T10:56:57.975Z,1027.42
2017-04-04T10:58:20.223Z,1027.38
2017-04-04T10:59:41.754Z,1027.37
2017-04-04T11:01:04.515Z,1027.34
2017-04-04T11:02:26.695Z,1027.34
2017-04-04T11:03:48.528Z,1027.33
2017-04-04T11:05:10.365Z,1027.37
2017-04-04T11:06:32.193Z,1027.32
2017-04-04T11:07:54.040Z,1027.3
2017-04-04T11:09:15.866Z,1027.22
2017-04-04T11:10:38.013Z,1027.23
2017-04-04T11:12:00.236Z,1027.24
2017-04-04T11:13:22.405Z,1027.24
2017-04-04T11:14:45.265Z,1027.23
2017-04-04T11:16:07.075Z,1027.22
2017-04-04T11:17:29.184Z,1027.22
2017-04-04T11:18:51.445Z,1027.19
2017-04-04T11:20:13.582Z,1027.19
2017-04-04T11:21:35.823Z,1027.19
2017-04-04T11:22:58.341Z,1027.16
2017-04-04T11:24:20.156Z,1027.16
2017-04-04T11:25:42.006Z,1027.14
2017-04-04T11:27:04.152Z,1027.18
2017-04-04T11:28:26.977Z,1027.17
2017-04-04T11:29:48.815Z,1027.16
2017-04-04T11:31:10.975Z,1027.12
2017-04-04T11:32:32.794Z,1027.15
2017-04-04T11:33:55.295Z,1027.09
2017-04-04T11:35:17.585Z,1027.08
2017-04-04T11:36:39.815Z,1027.09
2017-04-04T11:38:01.956Z,1027.07
2017-04-04T11:39:23.817Z,1027.07
2017-04-04T11:40:45.645Z,1027.02
2017-04-04T11:42:07.464Z,1027.08
2017-04-04T11:43:29.305Z,1027.06
2017-04-04T11:44:51.443Z,1027.06
2017-04-04T11:46:13.296Z,1027.04
2017-04-04T11:47:35.464Z,1027.01
2017-04-04T11:48:57.924Z,1027.04
2017-04-04T11:50:20.424Z,1027.03
2017-04-04T11:51:42.574Z,1027.01
2017-04-04T11:53:04.092Z,1026.99
2017-04-04T11:54:25.636Z,1026.97
2017-04-04T11:55:47.932Z,1026.96
2017-04-04T11:57:09.775Z,1026.96
2017-04-04T11:58:31.956Z,1026.95
2017-04-04T11:59:53.825Z,1026.88
2017-04-04T12:01:16.043Z,1026.9
2017-04-04T12:02:37.885Z,1026.83
2017-04-04T12:03:59.834Z,1026.79
2017-04-04T12:05:21.994Z,1026.73
2017-04-04T12:06:44.145Z,1026.83
2017-04-04T12:08:06.590Z,1026.82
2017-04-04T12:09:28.424Z,1026.88
2017-04-04T12:10:50.332Z,1026.85
2017-04-04T12:12:12.548Z,1026.79
2017-04-04T12:13:34.379Z,1026.8
2017-04-04T12:14:55.923Z,1026.81
2017-04-04T12:16:17.791Z,1026.78
2017-04-04T12:17:40.365Z,1026.77
2017-04-04T12:19:02.885Z,1026.73
2017-04-04T12:20:25.045Z,1026.79
2017-04-04T12:21:46.893Z,1026.76
2017-04-04T12:23:09.076Z,1026.73
2017-04-04T12:24:31.296Z,1026.73
2017-04-04T12:25:53.606Z,1026.75
2017-04-04T12:27:16.092Z,1026.81
2017-04-04T12:28:38.006Z,1026.71
2017-04-04T12:29:59.926Z,1026.71
2017-04-04T12:31:22.125Z,1026.73
2017-04-04T12:32:43.944Z,1026.7
2017-04-04T12:34:06.405Z,1026.78
2017-04-04T12:35:28.927Z,1026.69
2017-04-04T12:36:51.186Z,1026.68
2017-04-04T12:38:13.128Z,1026.67
2017-04-04T12:39:35.698Z,1026.65
2017-04-04T12:40:58.155Z,1026.6
2017-04-04T12:42:19.685Z,1026.57
2017-04-04T12:43:41.836Z,1026.62
2017-04-04T12:45:04.046Z,1026.56
2017-04-04T12:46:26.318Z,1026.51
2017-04-04T12:47:48.455Z,1026.53
2017-04-04T12:49:09.327Z,1026.45
2017-04-04T12:50:31.844Z,1026.44
2017-04-04T12:51:54.295Z,1026.47
2017-04-04T12:53:16.145Z,1026.44
2017-04-04T12:54:38.623Z,1026.4
2017-04-04T12:56:01.104Z,1026.45
2017-04-04T12:57:23.294Z,1026.45
2017-04-04T12:58:44.813Z,1026.42
2017-04-04T13:00:06.986Z,1026.45
2017-04-04T13:01:29.805Z,1026.44
2017-04-04T13:02:52.011Z,1026.43
2017-04-04T13:04:13.664Z,1026.42
2017-04-04T13:05:35.518Z,1026.44
2017-04-04T13:06:58.074Z,1026.5
2017-04-04T13:08:20.534Z,1026.45
2017-04-04T13:09:43.005Z,1026.48
2017-04-04T13:11:04.857Z,1026.42
2017-04-04T13:12:28.501Z,1026.42
2017-04-04T13:13:50.339Z,1026.4
2017-04-04T13:15:12.184Z,1026.43
2017-04-04T13:16:34.654Z,1026.42
2017-04-04T13:17:57.173Z,1026.46
2017-04-04T13:19:19.412Z,1026.42
2017-04-04T13:20:41.953Z,1026.42
2017-04-04T13:22:03.826Z,1026.36
2017-04-04T13:23:25.994Z,1026.38
2017-04-04T13:24:48.496Z,1026.32
2017-04-04T13:26:10.325Z,1026.35
2017-04-04T13:27:32.184Z,1026.32
2017-04-04T13:28:54.591Z,1026.3
2017-04-04T13:30:17.057Z,1026.32
2017-04-04T13:31:38.931Z,1026.34
2017-04-04T13:33:01.215Z,1026.3
2017-04-04T13:34:23.088Z,1026.28
2017-04-04T13:35:44.922Z,1026.26
2017-04-04T13:37:06.784Z,1026.27
2017-04-04T13:38:29.256Z,1026.24
2017-04-04T13:39:51.754Z,1026.21
2017-04-04T13:41:13.784Z,1026.21
2017-04-04T13:42:36.284Z,1026.21
2017-04-04T13:43:58.854Z,1026.22
2017-04-04T13:45:21.439Z,1026.2
2017-04-04T13:46:43.693Z,1026.15
2017-04-04T13:48:05.204Z,1026.15
2017-04-04T13:49:27.652Z,1026.13
2017-04-04T13:50:50.425Z,1026.15
2017-04-04T13:52:12.903Z,1026.09
2017-04-04T13:53:34.166Z,1026.11
2017-04-04T13:54:56.324Z,1026.11
2017-04-04T13:56:18.821Z,1026.08
2017-04-04T13:57:41.073Z,1026.06
2017-04-04T13:59:03.544Z,1026.06
2017-04-04T14:00:25.694Z,1026.03
2017-04-04T14:01:48.213Z,1026.08
2017-04-04T14:03:10.367Z,1026.02
2017-04-04T14:04:32.872Z,1026.05
2017-04-04T14:05:54.706Z,1026.03
2017-04-04T14:07:17.253Z,1026.03
2017-04-04T14:08:39.396Z,1025.99
2017-04-04T14:10:01.805Z,1025.97
2017-04-04T14:11:23.627Z,1025.92
2017-04-04T14:12:46.135Z,1025.96
2017-04-04T14:14:07.972Z,1025.89
2017-04-04T14:15:29.866Z,1025.85
2017-04-04T14:16:52.050Z,1025.84
2017-04-04T14:18:14.205Z,1025.89
2017-04-04T14:19:36.436Z,1025.87
2017-04-04T14:20:58.275Z,1025.89
2017-04-04T14:22:20.424Z,1025.9
2017-04-04T14:23:42.604Z,1025.9
2017-04-04T14:25:04.736Z,1025.89
2017-04-04T14:26:26.877Z,1025.9
2017-04-04T14:27:49.036Z,1025.91
2017-04-04T14:29:11.908Z,1025.89
2017-04-04T14:30:34.161Z,1025.87
2017-04-04T14:31:55.995Z,1025.84
2017-04-04T14:33:18.005Z,1025.83
2017-04-04T14:34:40.505Z,1025.87
2017-04-04T14:36:02.705Z,1025.88
2017-04-04T14:37:24.547Z,1025.82
2017-04-04T14:38:46.376Z,1025.85
2017-04-04T14:40:10.755Z,1025.84
2017-04-04T14:41:32.596Z,1025.79
2017-04-04T14:42:54.983Z,1025.79
2017-04-04T14:44:16.532Z,1025.78
2017-04-04T14:45:39.119Z,1025.83
2017-04-04T14:47:01.605Z,1025.82
2017-04-04T14:48:23.838Z,1025.77
2017-04-04T14:49:46.303Z,1025.83
2017-04-04T14:51:08.822Z,1025.81
2017-04-04T14:52:30.685Z,1025.85
2017-04-04T14:53:52.841Z,1025.81
2017-04-04T14:55:15.013Z,1025.84
2017-04-04T14:56:37.493Z,1025.8
2017-04-04T14:57:59.367Z,1025.84
2017-04-04T14:59:21.664Z,1025.8
2017-04-04T15:00:43.498Z,1025.84
2017-04-04T15:02:06.264Z,1025.82
2017-04-04T15:03:28.729Z,1025.83
2017-04-04T15:04:50.915Z,1025.83
2017-04-04T15:06:13.088Z,1025.78
2017-04-04T15:07:35.598Z,1025.83
2017-04-04T15:08:57.487Z,1025.81
2017-04-04T15:10:19.655Z,1025.8
2017-04-04T15:11:41.501Z,1025.79
2017-04-04T15:13:03.964Z,1025.84
2017-04-04T15:14:26.179Z,1025.82
2017-04-04T15:15:48.336Z,1025.83
2017-04-04T15:17:10.486Z,1025.81
2017-04-04T15:18:32.740Z,1025.86
2017-04-04T15:19:54.291Z,1025.88
2017-04-04T15:21:16.806Z,1025.88
2017-04-04T15:22:39.366Z,1025.91
2017-04-04T15:24:01.817Z,1025.88
2017-04-04T15:25:23.460Z,1025.85
2017-04-04T15:26:45.344Z,1025.88
2017-04-04T15:28:06.915Z,1025.87
2017-04-04T15:29:29.407Z,1025.88
2017-04-04T15:30:51.872Z,1025.89
2017-04-04T15:32:13.073Z,1025.84
2017-04-04T15:33:35.585Z,1025.86
2017-04-04T15:34:57.704Z,1025.83
2017-04-04T15:36:19.866Z,1025.9
2017-04-04T15:37:41.723Z,1025.9
2017-04-04T15:39:03.405Z,1025.85
2017-04-04T15:40:26.021Z,1025.89
2017-04-04T15:41:47.929Z,1025.83
2017-04-04T15:43:10.073Z,1025.83
2017-04-04T15:44:32.636Z,1025.84
2017-04-04T15:45:55.206Z,1025.83
2017-04-04T15:47:17.375Z,1025.86
2017-04-04T15:48:39.816Z,1025.83
2017-04-04T15:50:02.335Z,1025.87
2017-04-04T15:51:24.457Z,1025.87
2017-04-04T15:52:46.333Z,1025.85
2017-04-04T15:54:08.525Z,1025.86
2017-04-04T15:55:30.419Z,1025.88
2017-04-04T15:56:52.935Z,1025.87
2017-04-04T15:58:14.875Z,1025.87
2017-04-04T15:59:36.425Z,1025.83
2017-04-04T16:00:58.636Z,1025.83
2017-04-04T16:02:21.472Z,1025.86
2017-04-04T16:03:44.015Z,1025.86
2017-04-04T16:05:06.514Z,1025.88
2017-04-04T16:06:28.999Z,1025.87
2017-04-04T16:07:51.235Z,1025.89
2017-04-04T16:09:13.726Z,1025.86
2017-04-04T16:10:36.224Z,1025.87
2017-04-04T16:11:58.711Z,1025.88
2017-04-04T16:13:20.562Z,1025.86
2017-04-04T16:14:42.722Z,1025.82
2017-04-04T16:16:04.576Z,1025.86
2017-04-04T16:17:27.077Z,1025.85
2017-04-04T16:18:49.517Z,1025.86
2017-04-04T16:20:10.805Z,1025.92
2017-04-04T16:21:32.957Z,1025.89
2017-04-04T16:22:55.097Z,1025.89
2017-04-04T16:24:17.986Z,1025.88
2017-04-04T16:25:39.898Z,1025.84
2017-04-04T16:27:02.223Z,1025.86
2017-04-04T16:28:24.388Z,1025.9
2017-04-04T16:29:46.518Z,1025.93
2017-04-04T16:31:09.160Z,1025.86
2017-04-04T16:32:30.831Z,1025.84
2017-04-04T16:33:52.994Z,1025.83
2017-04-04T16:35:15.695Z,1025.81
2017-04-04T16:36:37.897Z,1025.86
2017-04-04T16:38:00.402Z,1025.83